Time;durP1;ratioP1;P1;durP2;ratioP2;P2;SDS_P1;SDS_P2;PMS_P1;PMS_P2;Temp;Humidity;BMP_temperature;BMP_pressure;BME280_temperature;BME280_humidity;BME280_pressure;Samples;Min_cycle;Max_cycle;Signal;HPM_P1;HPM_P2
2021/09/12 00:02:13;;;;;;;6.43;5.30;;;;;;;23.05;38.36;94462.81;5016806;28;96624;-58
2021/09/12 00:04:39;;;;;;;7.43;5.15;;;;;;;23.07;38.27;94460.41;5016700;28;96942;-55
2021/09/12 00:07:04;;;;;;;6.32;4.97;;;;;;;23.03;38.11;94459.69;5016051;28;99704;-56
2021/09/12 00:09:29;;;;;;;4.68;4.18;;;;;;;23.06;38.22;94460.81;5015768;28;99302;-52
2021/09/12 00:11:55;;;;;;;5.35;4.28;;;;;;;23.06;38.47;94452.56;5016392;28;96790;-60
2021/09/12 00:14:20;;;;;;;5.38;4.03;;;;;;;23.13;38.32;94457.16;5016404;28;96716;-59
2021/09/12 00:16:46;;;;;;;5.68;4.00;;;;;;;23.08;38.18;94450.94;5015635;28;103533;-59
2021/09/12 00:19:11;;;;;;;4.10;3.47;;;;;;;23.16;38.24;94461.84;5015639;28;99122;-58
2021/09/12 00:21:37;;;;;;;7.80;6.13;;;;;;;23.15;38.36;94460.28;5016828;28;97302;-59
2021/09/12 00:24:02;;;;;;;11.02;8.25;;;;;;;23.15;37.99;94460.28;5016089;28;96899;-61
2021/09/12 00:26:27;;;;;;;12.15;9.77;;;;;;;23.10;38.32;94454.06;5015751;28;99249;-61
2021/09/12 00:28:53;;;;;;;12.57;10.13;;;;;;;23.08;38.19;94453.69;5015935;28;99533;-65
2021/09/12 00:31:19;;;;;;;11.82;9.20;;;;;;;23.03;38.32;94451.44;5015261;28;96795;-59
2021/09/12 00:33:44;;;;;;;9.90;8.82;;;;;;;23.04;39.03;94455.75;5016113;28;96833;-61
2021/09/12 00:36:10;;;;;;;9.38;8.10;;;;;;;23.07;38.88;94454.91;5015661;28;99689;-60
2021/09/12 00:38:35;;;;;;;10.25;7.57;;;;;;;23.08;38.82;94467.47;5015240;28;100829;-64
2021/09/12 00:41:01;;;;;;;7.40;6.43;;;;;;;23.07;38.53;94460.41;5016148;28;96662;-59
2021/09/12 00:43:26;;;;;;;6.60;5.70;;;;;;;23.06;38.26;94464.38;5016667;28;96878;-60
2021/09/12 00:45:55;;;;;;;6.88;5.50;;;;;;;23.08;38.55;94461.97;5015530;28;99267;-61
2021/09/12 00:48:21;;;;;;;5.68;5.05;;;;;;;23.07;38.48;94460.41;5015482;28;99388;-58
2021/09/12 00:50:47;;;;;;;5.45;4.72;;;;;;;23.02;38.57;94447.13;5016067;28;96676;-59
2021/09/12 00:53:12;;;;;;;5.45;4.43;;;;;;;23.16;38.36;94450.81;5015600;28;96944;-54
2021/09/12 00:55:38;;;;;;;4.63;4.13;;;;;;;23.17;38.40;94457.88;4996892;28;101378;-59
2021/09/12 00:58:03;;;;;;;4.55;3.88;;;;;;;23.16;38.48;94456.34;4981112;28;98145;-60
2021/09/12 01:00:29;;;;;;;4.40;4.00;;;;;;;23.16;38.58;94454.34;4980701;28;96854;-65
2021/09/12 01:02:54;;;;;;;3.78;3.35;;;;;;;23.17;38.62;94472.44;4997618;28;96902;-62
2021/09/12 01:05:20;;;;;;;3.90;3.55;;;;;;;23.20;38.61;94459.81;5014382;28;99332;-59
2021/09/12 01:07:46;;;;;;;3.35;3.05;;;;;;;23.15;38.55;94460.28;5014337;28;100686;-63
2021/09/12 01:10:12;;;;;;;4.38;3.28;;;;;;;23.17;38.68;94446.88;4996652;28;96704;-60
2021/09/12 01:12:37;;;;;;;3.80;3.22;;;;;;;23.20;38.82;94459.81;5014514;28;96871;-57
2021/09/12 01:15:04;;;;;;;3.95;3.20;;;;;;;23.19;38.61;94455.50;4996456;28;99432;-58
2021/09/12 01:17:29;;;;;;;3.35;3.10;;;;;;;23.21;38.60;94459.38;5014374;28;99883;-54
2021/09/12 01:19:55;;;;;;;3.78;3.40;;;;;;;23.22;38.80;94454.66;5014959;28;96823;-47
2021/09/12 01:22:20;;;;;;;3.30;2.85;;;;;;;23.24;38.50;94468.81;5014548;28;96928;-48
2021/09/12 01:24:46;;;;;;;6.97;4.45;;;;;;;23.25;38.73;94470.38;5014084;28;106612;-46
2021/09/12 01:27:11;;;;;;;31.00;13.43;;;;;;;23.26;38.74;94462.88;5014617;28;99474;-47
2021/09/12 01:29:36;;;;;;;66.30;28.10;;;;;;;23.25;38.73;94464.88;4996571;28;96739;-43
2021/09/12 01:32:02;;;;;;;54.40;21.65;;;;;;;23.21;38.77;94455.84;5014233;28;96945;-46
2021/09/12 01:34:27;;;;;;;42.38;18.55;;;;;;;23.24;38.92;94457.78;5013749;28;98031;-44
2021/09/12 01:36:53;;;;;;;39.05;17.30;;;;;;;23.26;38.72;94460.88;5013383;28;99670;-46
2021/09/12 01:39:18;;;;;;;34.33;16.17;;;;;;;23.29;38.73;94460.03;5014352;28;96916;-51
2021/09/12 01:41:44;;;;;;;34.47;18.08;;;;;;;23.27;38.58;94462.44;5014062;28;96932;-47
2021/09/12 01:44:09;;;;;;;28.05;15.57;;;;;;;23.28;38.57;94457.72;5017130;28;99550;-45
2021/09/12 01:46:35;;;;;;;27.13;19.58;;;;;;;23.28;38.67;94464.00;5017388;28;99386;-47
2021/09/12 01:49:02;;;;;;;27.55;16.98;;;;;;;23.27;38.57;94456.91;5017733;28;96790;-49
2021/09/12 01:51:27;;;;;;;25.70;15.27;;;;;;;23.25;38.71;94453.84;5000038;28;96966;-48
2021/09/12 01:53:53;;;;;;;23.30;13.35;;;;;;;23.28;38.74;94463.22;5016874;28;99359;-51
2021/09/12 01:56:18;;;;;;;18.17;11.07;;;;;;;23.26;38.39;94462.88;5016746;28;99242;-47
2021/09/12 01:58:44;;;;;;;14.13;6.90;;;;;;;23.26;37.78;94477.41;5017296;28;96631;-46
2021/09/12 02:01:09;;;;;;;11.23;5.80;;;;;;;23.22;37.01;94482.19;5017642;28;97005;-47
2021/09/12 02:03:34;;;;;;;7.32;5.03;;;;;;;23.16;36.93;94484.66;5016839;28;99842;-48
2021/09/12 02:06:00;;;;;;;11.55;4.82;;;;;;;23.09;36.20;94480.06;5016878;28;99060;-48
2021/09/12 02:08:25;;;;;;;6.78;4.50;;;;;;;23.02;36.10;94485.69;5017636;28;96542;-46
2021/09/12 02:10:51;;;;;;;6.10;4.30;;;;;;;22.95;36.42;94485.78;5017501;28;96891;-45
2021/09/12 02:13:16;;;;;;;7.20;4.38;;;;;;;22.90;36.14;94478.00;5016702;28;98870;-54
2021/09/12 02:15:42;;;;;;;6.97;3.90;;;;;;;22.85;35.93;94481.22;5017081;28;104332;-59
2021/09/12 02:18:07;;;;;;;9.00;4.07;;;;;;;22.80;36.65;94479.75;5017456;28;96647;-52
2021/09/12 02:20:33;;;;;;;5.68;3.85;;;;;;;22.75;36.29;94477.47;4999695;28;96976;-52
2021/09/12 02:22:58;;;;;;;6.57;4.05;;;;;;;22.72;35.87;94476.31;5016482;28;100026;-50
2021/09/12 02:25:23;;;;;;;6.57;4.13;;;;;;;22.62;36.22;94475.28;5016662;28;99261;-52
2021/09/12 02:27:49;;;;;;;8.52;5.63;;;;;;;22.64;35.63;94474.88;5017239;28;96867;-52
2021/09/12 02:30:14;;;;;;;9.70;5.00;;;;;;;22.58;35.68;94476.56;5017272;28;96929;-48
2021/09/12 02:32:40;;;;;;;7.72;4.38;;;;;;;22.49;35.55;94472.34;5016447;28;99700;-59
2021/09/12 02:35:06;;;;;;;21.25;16.55;;;;;;;22.33;35.51;94475.69;5016025;28;99598;-53
2021/09/12 02:37:32;;;;;;;30.98;27.25;;;;;;;22.19;35.64;94465.66;5016906;28;96895;-52
2021/09/12 02:39:57;;;;;;;26.75;21.92;;;;;;;22.12;35.63;94471.25;5017003;28;96921;-53
2021/09/12 02:42:22;;;;;;;20.42;15.65;;;;;;;21.97;35.91;94464.41;5016094;28;105557;-58
2021/09/12 02:44:48;;;;;;;18.23;11.32;;;;;;;21.92;36.15;94469.16;5016568;28;97649;-53
2021/09/12 02:47:13;;;;;;;36.15;31.02;;;;;;;21.81;36.43;94468.53;5016378;28;96671;-55
2021/09/12 02:49:39;;;;;;;40.80;36.42;;;;;;;21.75;36.73;94470.94;5016300;28;97026;-54
2021/09/12 02:52:04;;;;;;;65.97;59.08;;;;;;;21.66;36.71;94456.13;5016312;28;99758;-54
2021/09/12 02:54:30;;;;;;;47.58;42.78;;;;;;;21.75;37.08;94461.91;5016081;28;99743;-43
2021/09/12 02:56:55;;;;;;;38.75;34.75;;;;;;;21.79;36.83;94456.34;5016121;28;96656;-45
2021/09/12 02:59:21;;;;;;;38.13;34.25;;;;;;;21.95;37.65;94461.28;5016431;28;96898;-41
2021/09/12 03:01:46;;;;;;;36.63;32.53;;;;;;;22.06;37.91;94462.69;5015643;28;107331;-46
2021/09/12 03:04:11;;;;;;;32.47;28.90;;;;;;;22.15;37.65;94462.16;5015762;28;100536;-48
2021/09/12 03:06:37;;;;;;;29.65;26.02;;;;;;;22.22;37.54;94461.31;5016705;28;96673;-45
2021/09/12 03:09:02;;;;;;;29.50;26.33;;;;;;;22.34;38.36;94471.75;5016435;28;96930;-42
2021/09/12 03:11:28;;;;;;;30.30;27.02;;;;;;;22.45;38.04;94476.34;5015539;28;99598;-44
2021/09/12 03:13:53;;;;;;;29.42;22.40;;;;;;;22.52;38.04;94464.44;5015622;28;99255;-44
2021/09/12 03:16:19;;;;;;;37.42;33.80;;;;;;;22.54;37.67;94457.31;5016215;28;96725;-43
2021/09/12 03:18:45;;;;;;;28.15;24.95;;;;;;;22.58;37.88;94476.56;5016465;28;96950;-45
2021/09/12 03:21:10;;;;;;;26.63;23.83;;;;;;;22.64;37.71;94477.66;5015642;28;99305;-44
2021/09/12 03:23:36;;;;;;;31.05;27.85;;;;;;;22.69;37.90;94471.63;5015875;28;99485;-41
2021/09/12 03:26:02;;;;;;;27.23;21.35;;;;;;;22.70;38.44;94475.94;5016445;28;96632;-41
2021/09/12 03:28:27;;;;;;;24.48;21.88;;;;;;;22.69;38.83;94474.38;5016402;28;96942;-46
2021/09/12 03:30:52;;;;;;;25.38;22.77;;;;;;;22.74;38.74;94482.19;4997820;28;99732;-45
2021/09/12 03:33:18;;;;;;;28.55;25.38;;;;;;;22.75;38.81;94489.25;5015726;28;99182;-44
2021/09/12 03:35:43;;;;;;;28.23;25.30;;;;;;;22.73;38.85;94474.34;5015723;28;96723;-42
2021/09/12 03:38:09;;;;;;;26.38;23.58;;;;;;;22.76;38.89;94479.78;5016164;28;97098;-44
2021/09/12 03:40:34;;;;;;;26.98;24.27;;;;;;;22.77;38.82;94475.06;5015646;28;99096;-48
2021/09/12 03:43:00;;;;;;;25.70;23.00;;;;;;;22.78;39.05;94476.63;5015374;28;107230;-45
2021/09/12 03:45:25;;;;;;;25.67;22.98;;;;;;;22.78;38.99;94474.66;5016119;28;96725;-42
2021/09/12 03:47:50;;;;;;;25.63;22.88;;;;;;;22.79;39.00;94478.19;5014167;28;96945;-41
2021/09/12 03:50:16;;;;;;;25.67;23.08;;;;;;;22.74;39.05;94475.91;5012685;28;100512;-43
2021/09/12 03:52:42;;;;;;;23.20;20.77;;;;;;;22.79;38.97;94473.44;5013022;28;99301;-41
2021/09/12 03:55:08;;;;;;;24.65;22.05;;;;;;;22.79;39.18;94476.19;5013211;28;97265;-42
2021/09/12 03:57:34;;;;;;;22.88;20.58;;;;;;;22.82;38.45;94476.56;5013728;28;97161;-43
2021/09/12 03:59:59;;;;;;;19.52;17.52;;;;;;;22.82;38.51;94482.06;5012879;28;99730;-43
2021/09/12 04:02:24;;;;;;;17.40;15.32;;;;;;;22.84;38.86;94471.41;5013604;28;97734;-48
2021/09/12 04:04:50;;;;;;;18.25;16.35;;;;;;;22.85;38.71;94484.00;5014112;28;96767;-49
2021/09/12 04:07:15;;;;;;;19.63;17.15;;;;;;;22.83;38.83;94478.91;5014545;28;97096;-46
2021/09/12 04:09:41;;;;;;;20.45;18.35;;;;;;;22.85;39.31;94481.22;5014961;28;99718;-42
2021/09/12 04:12:07;;;;;;;19.27;17.25;;;;;;;22.84;39.08;94490.69;5014719;28;106730;-43
2021/09/12 04:14:32;;;;;;;19.40;16.48;;;;;;;22.83;38.98;94489.13;5015903;28;96661;-44
2021/09/12 04:16:57;;;;;;;19.08;16.27;;;;;;;22.83;38.72;94486.38;5015587;28;96942;-42
2021/09/12 04:19:23;;;;;;;17.67;15.18;;;;;;;22.82;38.87;94498.59;5014805;28;104045;-41
2021/09/12 04:21:48;;;;;;;16.80;14.85;;;;;;;22.82;38.84;94495.84;5014784;28;102206;-41
2021/09/12 04:24:13;;;;;;;16.45;14.63;;;;;;;22.82;38.89;94495.84;5015118;28;96732;-41
2021/09/12 04:26:39;;;;;;;17.08;14.40;;;;;;;22.80;39.10;94497.03;5015380;28;96986;-41
2021/09/12 04:29:04;;;;;;;15.00;13.40;;;;;;;22.78;39.41;94496.66;5015199;28;99366;-46
2021/09/12 04:31:30;;;;;;;17.60;14.75;;;;;;;22.80;38.96;94490.75;5014872;28;99234;-44
2021/09/12 04:33:56;;;;;;;15.27;13.68;;;;;;;22.79;39.19;94489.97;5015435;28;96752;-45
2021/09/12 04:36:21;;;;;;;14.40;12.93;;;;;;;22.77;39.28;94489.59;5015113;28;96994;-42
2021/09/12 04:38:47;;;;;;;14.80;13.05;;;;;;;22.78;39.11;94493.91;5014783;28;99321;-42
2021/09/12 04:41:12;;;;;;;14.50;12.95;;;;;;;22.78;39.25;94493.91;5014955;28;99469;-41
2021/09/12 04:43:37;;;;;;;13.77;12.30;;;;;;;22.78;39.23;94493.91;5015131;28;96667;-41
2021/09/12 04:46:03;;;;;;;14.68;12.52;;;;;;;22.77;39.06;94495.13;5015094;28;97101;-44
2021/09/12 04:48:28;;;;;;;13.10;11.68;;;;;;;22.78;39.20;94501.41;5014159;28;102209;-40
2021/09/12 04:50:55;;;;;;;13.00;11.70;;;;;;;22.75;39.18;94493.97;5014321;28;99328;-41
2021/09/12 04:53:20;;;;;;;13.02;11.68;;;;;;;22.77;39.34;94503.38;5014916;28;97770;-45
2021/09/12 04:55:46;;;;;;;13.63;11.75;;;;;;;22.75;39.30;94500.25;5014679;28;96930;-43
2021/09/12 04:58:11;;;;;;;13.35;11.27;;;;;;;22.77;39.42;94505.34;5014818;28;97446;-42
2021/09/12 05:00:37;;;;;;;13.25;11.38;;;;;;;22.77;39.39;94502.59;5014429;28;99416;-45
2021/09/12 05:03:02;;;;;;;14.23;11.15;;;;;;;22.77;39.55;94503.38;5014795;28;96740;-43
2021/09/12 05:05:28;;;;;;;12.63;10.70;;;;;;;22.76;39.60;94507.31;5014815;28;96949;-42
2021/09/12 05:07:54;;;;;;;13.48;11.18;;;;;;;22.77;39.46;94508.88;5014432;28;99157;-44
2021/09/12 05:10:21;;;;;;;13.40;11.43;;;;;;;22.72;39.44;94506.59;5014323;28;99127;-44
2021/09/12 05:12:46;;;;;;;12.35;10.95;;;;;;;22.77;39.54;94511.63;5014355;28;96634;-45
2021/09/12 05:15:11;;;;;;;13.15;10.65;;;;;;;22.76;39.43;94512.81;5014763;28;96918;-42
2021/09/12 05:17:37;;;;;;;13.88;10.85;;;;;;;22.73;39.60;94501.88;5015449;28;99746;-43
2021/09/12 05:20:04;;;;;;;12.63;11.32;;;;;;;22.77;39.22;94514.38;5017798;28;101384;-42
2021/09/12 05:22:29;;;;;;;12.48;10.88;;;;;;;22.77;39.32;94514.38;5018179;28;96651;-42
2021/09/12 05:24:54;;;;;;;12.98;10.38;;;;;;;22.79;39.34;94517.50;5018090;28;96908;-44
2021/09/12 05:27:20;;;;;;;12.90;10.15;;;;;;;22.79;39.45;94516.72;5017773;28;99349;-49
2021/09/12 05:29:45;;;;;;;11.63;10.40;;;;;;;22.79;39.24;94528.50;5017943;28;99081;-44
2021/09/12 05:32:11;;;;;;;11.52;10.25;;;;;;;22.80;39.41;94519.06;5018415;28;96682;-41
2021/09/12 05:34:36;;;;;;;10.93;9.50;;;;;;;22.80;39.52;94521.03;5018162;28;96957;-44
2021/09/12 05:37:02;;;;;;;11.23;9.82;;;;;;;22.81;39.48;94525.34;5017235;28;100064;-47
2021/09/12 05:39:27;;;;;;;11.23;9.75;;;;;;;22.80;39.62;94519.06;5017856;28;99804;-46
2021/09/12 05:41:52;;;;;;;10.45;9.35;;;;;;;22.80;39.52;94519.06;5018274;28;96896;-40
2021/09/12 05:44:18;;;;;;;9.60;8.65;;;;;;;22.80;39.27;94519.06;5018051;28;96849;-40
2021/09/12 05:46:44;;;;;;;11.23;8.85;;;;;;;22.80;39.34;94518.28;5017780;28;99311;-43
2021/09/12 05:49:09;;;;;;;10.07;9.07;;;;;;;22.82;39.24;94520.63;5017656;28;98646;-45
2021/09/12 05:51:35;;;;;;;9.43;8.50;;;;;;;22.80;39.47;94523.81;5017814;28;96689;-46
2021/09/12 05:54:00;;;;;;;10.05;9.05;;;;;;;22.80;39.59;94518.28;5018322;28;96934;-50
2021/09/12 05:56:26;;;;;;;9.90;8.57;;;;;;;22.74;39.51;94515.22;5017079;28;99419;-42
2021/09/12 05:58:51;;;;;;;10.25;9.10;;;;;;;22.80;39.70;94524.56;5017544;28;99198;-42
2021/09/12 06:01:16;;;;;;;10.57;8.93;;;;;;;22.80;39.47;94524.56;5017635;28;96631;-43
2021/09/12 06:03:42;;;;;;;10.07;8.60;;;;;;;22.79;39.48;94517.50;5018056;28;96991;-43
2021/09/12 06:06:07;;;;;;;10.30;8.52;;;;;;;22.79;39.69;94520.25;5017196;28;99274;-43
2021/09/12 06:08:33;;;;;;;9.85;8.55;;;;;;;22.79;39.55;94523.00;5017322;28;99940;-45
2021/09/12 06:10:58;;;;;;;8.88;7.95;;;;;;;22.75;39.52;94516.00;5017785;28;96751;-43
2021/09/12 06:13:27;;;;;;;8.90;8.00;;;;;;;22.79;39.51;94525.75;5017513;28;96918;-42
2021/09/12 06:15:52;;;;;;;8.88;7.95;;;;;;;22.80;39.65;94526.56;5017089;28;99369;-42
2021/09/12 06:18:17;;;;;;;10.35;8.00;;;;;;;22.78;39.60;94526.94;5017889;28;97181;-47
2021/09/12 06:20:43;;;;;;;8.52;7.57;;;;;;;22.79;39.79;94528.50;5017589;28;96962;-44
2021/09/12 06:23:08;;;;;;;8.30;7.50;;;;;;;22.79;39.79;94525.75;5017467;28;96868;-55
2021/09/12 06:25:34;;;;;;;9.27;7.63;;;;;;;22.79;39.67;94522.25;5016641;28;99863;-40
2021/09/12 06:27:59;;;;;;;8.55;7.43;;;;;;;22.79;39.68;94525.75;5016429;28;100062;-41
2021/09/12 06:30:25;;;;;;;7.85;7.05;;;;;;;22.79;39.97;94517.50;5017521;28;96603;-41
2021/09/12 06:32:50;;;;;;;9.30;7.70;;;;;;;22.79;39.75;94517.50;5017666;28;96930;-43
2021/09/12 06:35:16;;;;;;;9.13;7.28;;;;;;;22.80;39.86;94530.06;5017087;28;99333;-46
2021/09/12 06:37:41;;;;;;;9.15;7.38;;;;;;;22.79;39.55;94527.75;5016627;28;99675;-42
2021/09/12 06:40:07;;;;;;;8.10;6.50;;;;;;;22.79;39.67;94528.50;5017206;28;96671;-45
2021/09/12 06:42:33;;;;;;;8.30;7.40;;;;;;;22.79;39.52;94523.00;5017694;28;96974;-44
2021/09/12 06:44:58;;;;;;;8.07;6.95;;;;;;;22.79;39.62;94525.75;5017065;28;97864;-44
2021/09/12 06:47:24;;;;;;;9.13;7.45;;;;;;;22.80;39.79;94530.06;5016865;28;99378;-41
2021/09/12 06:49:49;;;;;;;9.48;6.95;;;;;;;22.80;39.98;94535.56;5016665;28;96805;-42
2021/09/12 06:52:15;;;;;;;7.80;7.00;;;;;;;22.80;39.88;94524.56;5016697;28;97577;-42
2021/09/12 06:54:40;;;;;;;7.35;6.53;;;;;;;22.80;39.83;94530.06;5017016;28;100720;-42
2021/09/12 06:57:06;;;;;;;7.95;6.93;;;;;;;22.82;39.85;94531.63;5016270;28;99149;-45
2021/09/12 06:59:31;;;;;;;8.77;6.30;;;;;;;22.82;39.87;94537.13;5016940;28;96793;-41
2021/09/12 07:01:56;;;;;;;7.32;6.53;;;;;;;22.82;40.00;94532.41;5016709;28;97292;-42
2021/09/12 07:04:22;;;;;;;10.23;6.47;;;;;;;22.83;40.02;94527.69;5016516;28;99616;-42
2021/09/12 07:06:47;;;;;;;7.40;6.60;;;;;;;22.82;39.96;94528.88;5016331;28;98989;-44
2021/09/12 07:09:13;;;;;;;8.60;6.63;;;;;;;22.83;39.92;94533.97;5017223;28;96777;-44
2021/09/12 07:11:38;;;;;;;6.97;6.30;;;;;;;22.85;39.87;94536.31;5016926;28;96752;-43
2021/09/12 07:14:04;;;;;;;7.82;6.55;;;;;;;22.78;39.78;94537.97;5015433;28;105577;-46
2021/09/12 07:16:30;;;;;;;7.60;6.45;;;;;;;22.84;39.80;94540.25;5016304;28;98380;-44
2021/09/12 07:18:55;;;;;;;7.05;5.63;;;;;;;22.84;39.70;94534.75;5016751;28;96740;-42
2021/09/12 07:21:21;;;;;;;6.30;5.70;;;;;;;22.83;39.52;94539.50;5016605;28;96918;-47
2021/09/12 07:23:46;;;;;;;6.95;6.25;;;;;;;22.85;39.79;94536.31;5016225;28;99401;-42
2021/09/12 07:26:11;;;;;;;7.43;5.97;;;;;;;22.84;39.74;94537.50;5016277;28;97838;-42
2021/09/12 07:28:38;;;;;;;6.85;6.00;;;;;;;22.85;39.51;94530.78;5016692;28;96739;-41
2021/09/12 07:31:04;;;;;;;6.72;5.85;;;;;;;22.85;39.74;94533.56;5016886;28;96978;-45
2021/09/12 07:33:29;;;;;;;9.65;6.43;;;;;;;22.84;39.68;94532.00;5016053;28;99512;-42
2021/09/12 07:35:55;;;;;;;7.63;5.88;;;;;;;22.84;39.77;94529.25;5015638;28;99489;-44
2021/09/12 07:38:20;;;;;;;6.78;5.93;;;;;;;22.84;39.63;94529.25;5015770;28;96735;-43
2021/09/12 07:40:45;;;;;;;7.68;6.07;;;;;;;22.84;39.75;94524.53;5015269;28;96918;-45
2021/09/12 07:43:11;;;;;;;6.47;5.88;;;;;;;22.85;39.70;94519.78;5015722;28;105302;-51
2021/09/12 07:45:36;;;;;;;6.88;5.95;;;;;;;22.84;39.86;94518.22;5015916;28;99012;-41
2021/09/12 07:48:02;;;;;;;7.13;5.75;;;;;;;22.84;40.00;94521.78;5016348;28;96718;-45
2021/09/12 07:50:27;;;;;;;6.90;5.68;;;;;;;22.84;39.52;94523.72;5016334;28;96939;-44
2021/09/12 07:52:53;;;;;;;7.93;5.93;;;;;;;22.85;39.98;94517.03;5015439;28;104369;-42
2021/09/12 07:55:18;;;;;;;6.35;5.75;;;;;;;22.84;40.23;94523.72;5015088;28;107587;-42
2021/09/12 07:57:44;;;;;;;5.93;5.32;;;;;;;22.82;39.99;94515.09;5016135;28;96656;-41
2021/09/12 08:00:10;;;;;;;5.80;5.20;;;;;;;22.83;39.82;94513.91;5016203;28;96907;-44
2021/09/12 08:02:35;;;;;;;5.82;5.10;;;;;;;22.85;40.06;94517.03;5015014;28;99961;-45
2021/09/12 08:05:01;;;;;;;7.53;5.13;;;;;;;22.79;39.91;94500.97;5015503;28;99228;-46
2021/09/12 08:07:26;;;;;;;5.85;5.22;;;;;;;22.85;40.24;94514.28;5015637;28;96738;-44
2021/09/12 08:09:52;;;;;;;6.93;5.78;;;;;;;22.84;40.23;94507.22;5016254;28;96919;-45
2021/09/12 08:12:17;;;;;;;7.07;5.15;;;;;;;22.84;40.27;94509.97;5015423;28;99795;-41
2021/09/12 08:14:43;;;;;;;5.70;5.20;;;;;;;22.85;40.25;94509.56;5015027;28;103097;-42
2021/09/12 08:17:08;;;;;;;6.63;5.32;;;;;;;22.86;40.29;94510.31;5015713;28;96880;-43
2021/09/12 08:19:34;;;;;;;6.78;6.07;;;;;;;22.87;40.51;94511.88;5016152;28;96731;-43
2021/09/12 08:21:59;;;;;;;7.53;5.65;;;;;;;22.86;40.33;94504.81;5015192;28;100434;-42
2021/09/12 08:24:24;;;;;;;6.30;5.35;;;;;;;22.86;40.56;94507.56;5015351;28;97699;-41
2021/09/12 08:26:50;;;;;;;7.45;5.63;;;;;;;22.87;40.48;94511.88;4997054;28;96642;-44
2021/09/12 08:29:15;;;;;;;6.15;5.50;;;;;;;22.87;40.79;94506.38;5015726;28;96902;-44
2021/09/12 08:31:41;;;;;;;7.38;5.50;;;;;;;22.89;40.69;94498.47;5015033;28;99714;-41
2021/09/12 08:34:06;;;;;;;5.80;5.20;;;;;;;22.89;40.52;94504.78;5014984;28;99008;-42
2021/09/12 08:36:32;;;;;;;5.60;5.10;;;;;;;22.90;40.31;94497.28;5015449;28;96730;-43
2021/09/12 08:38:57;;;;;;;5.57;4.97;;;;;;;22.89;39.78;94491.00;5015592;28;96878;-42
2021/09/12 08:41:23;;;;;;;6.65;5.00;;;;;;;22.91;39.87;94493.34;5014870;28;101456;-42
2021/09/12 08:43:48;;;;;;;5.72;5.07;;;;;;;22.92;39.63;94483.88;4997510;28;99546;-42
2021/09/12 08:46:14;;;;;;;5.60;5.05;;;;;;;22.92;39.89;94484.66;5015536;28;96694;-42
2021/09/12 08:48:40;;;;;;;5.38;4.88;;;;;;;22.94;39.65;94481.47;5015488;28;96881;-40
2021/09/12 08:51:05;;;;;;;5.78;5.18;;;;;;;22.95;39.71;94485.78;5014107;28;99376;-42
2021/09/12 08:53:31;;;;;;;4.90;4.40;;;;;;;22.97;39.60;94475.13;5014662;28;99459;-42
2021/09/12 08:55:56;;;;;;;6.10;4.80;;;;;;;22.98;39.58;94482.19;5014822;28;96879;-45
2021/09/12 08:58:22;;;;;;;6.07;5.03;;;;;;;22.99;39.59;94481.00;5015077;28;96948;-42
2021/09/12 09:00:47;;;;;;;5.88;5.05;;;;;;;23.01;39.48;94467.59;5014630;28;99849;-48
2021/09/12 09:03:13;;;;;;;6.60;4.78;;;;;;;23.02;39.68;94469.16;5014543;28;99347;-44
2021/09/12 09:05:41;;;;;;;5.28;4.72;;;;;;;23.02;39.20;94466.41;5015292;28;96650;-40
2021/09/12 09:08:13;;;;;;;5.97;5.03;;;;;;;22.98;39.48;94457.41;5015367;28;96973;-42
2021/09/12 09:10:49;;;;;;;5.22;4.72;;;;;;;23.05;39.46;94457.28;5014740;28;99835;-43
2021/09/12 09:13:33;;;;;;;5.25;4.40;;;;;;;23.06;39.60;94458.06;5014079;28;100036;-41
2021/09/12 09:15:59;;;;;;;5.93;4.50;;;;;;;23.06;39.69;94456.09;5014712;28;96715;-43
2021/09/12 09:18:32;;;;;;;4.55;4.15;;;;;;;23.07;40.18;94460.41;5014712;28;96876;-44
2021/09/12 09:20:57;;;;;;;5.43;4.55;;;;;;;23.08;40.21;94459.22;5014379;28;99630;-42
2021/09/12 09:23:23;;;;;;;5.22;4.68;;;;;;;23.07;40.03;94454.09;5014413;28;99261;-43
2021/09/12 09:25:50;;;;;;;5.43;4.93;;;;;;;23.10;40.02;94454.06;5014749;28;96813;-43
2021/09/12 09:28:15;;;;;;;4.57;4.15;;;;;;;23.12;40.05;94455.63;4997298;28;96973;-47
2021/09/12 09:30:47;;;;;;;5.20;4.70;;;;;;;23.13;39.92;94451.66;5014069;28;99566;-46
2021/09/12 09:33:26;;;;;;;5.47;4.90;;;;;;;23.14;40.22;94451.22;5014534;28;99332;-48
2021/09/12 09:35:52;;;;;;;5.22;4.25;;;;;;;23.15;40.18;94449.25;5015124;28;96732;-45
2021/09/12 09:38:21;;;;;;;5.32;4.70;;;;;;;23.15;39.59;94449.25;5014706;28;97040;-51
2021/09/12 09:41:10;;;;;;;4.85;4.35;;;;;;;23.16;39.56;94450.81;5013733;28;99470;-43
2021/09/12 09:43:43;;;;;;;4.80;4.38;;;;;;;23.17;39.33;94446.88;5013997;28;99388;-48
2021/09/12 09:46:28;;;;;;;7.05;4.30;;;;;;;23.18;39.35;94437.41;5014860;28;96675;-43
2021/09/12 09:48:53;;;;;;;5.20;4.50;;;;;;;23.18;39.31;94448.44;5014656;28;96967;-43
2021/09/12 09:51:19;;;;;;;5.80;4.20;;;;;;;23.18;39.27;94437.41;5014159;28;99453;-45
2021/09/12 09:53:44;;;;;;;6.50;4.88;;;;;;;23.18;39.37;94437.41;5014026;28;99225;-42
2021/09/12 09:56:10;;;;;;;4.80;4.40;;;;;;;23.20;39.63;94435.00;5013606;28;96788;-41
2021/09/12 09:58:35;;;;;;;5.18;4.47;;;;;;;23.22;39.42;94438.91;5014806;28;97112;-45
2021/09/12 10:01:01;;;;;;;4.75;4.25;;;;;;;23.23;39.56;94439.72;4996299;28;99555;-43
2021/09/12 10:03:26;;;;;;;5.15;4.25;;;;;;;23.20;39.47;94429.50;5014773;28;98962;-42
2021/09/12 10:05:52;;;;;;;6.82;4.60;;;;;;;23.27;39.26;94434.13;5017441;28;96694;-41
2021/09/12 10:08:17;;;;;;;5.35;4.57;;;;;;;23.28;39.20;94430.94;5017831;28;96919;-44
2021/09/12 10:10:44;;;;;;;5.20;4.45;;;;;;;23.29;39.26;94426.97;5017354;28;99566;-42
2021/09/12 10:13:09;;;;;;;5.03;4.47;;;;;;;23.27;38.71;94418.34;5017137;28;99004;-40
2021/09/12 10:15:37;;;;;;;5.75;4.38;;;;;;;23.31;39.52;94413.56;4983345;28;96670;-46
2021/09/12 10:18:03;;;;;;;5.35;4.40;;;;;;;23.35;39.31;94419.00;4983484;28;96923;-44
2021/09/12 10:20:29;;;;;;;6.10;4.50;;;;;;;23.35;39.23;94414.25;4999343;28;99607;-44
2021/09/12 10:22:56;;;;;;;5.05;4.38;;;;;;;23.38;39.16;94407.91;5017977;28;99490;-43
2021/09/12 10:25:45;;;;;;;4.95;4.40;;;;;;;23.38;39.18;94407.91;5017449;28;96779;-39
2021/09/12 10:28:11;;;;;;;4.82;4.35;;;;;;;23.36;39.22;94404.78;5001476;28;96823;-41
2021/09/12 10:30:37;;;;;;;4.60;4.20;;;;;;;23.37;39.02;94411.84;5016512;28;102490;-45
2021/09/12 10:33:05;;;;;;;8.32;4.55;;;;;;;23.37;39.00;94411.84;5017078;28;99245;-46
2021/09/12 10:35:46;;;;;;;4.80;4.40;;;;;;;23.37;39.17;94405.59;5017828;28;97850;-42
2021/09/12 10:38:12;;;;;;;4.70;3.80;;;;;;;23.38;39.21;94405.16;5017429;28;96976;-45
2021/09/12 10:40:49;;;;;;;4.80;4.30;;;;;;;23.38;39.01;94398.88;5016790;28;99430;-43
2021/09/12 10:43:27;;;;;;;4.43;3.92;;;;;;;23.37;39.24;94402.81;5016825;28;99174;-42
2021/09/12 10:46:02;;;;;;;5.60;3.80;;;;;;;23.35;38.90;94397.72;5017381;28;96794;-45
2021/09/12 10:48:30;;;;;;;4.63;3.97;;;;;;;23.30;39.19;94392.72;5017453;28;96932;-45
2021/09/12 10:50:56;;;;;;;5.35;4.07;;;;;;;23.37;39.20;94398.09;5016551;28;99845;-44
2021/09/12 10:53:44;;;;;;;4.68;4.10;;;;;;;23.37;39.15;94397.31;5016755;28;99021;-41
2021/09/12 10:56:15;;;;;;;4.53;4.07;;;;;;;23.36;39.03;94384.75;5016045;28;96913;-44
2021/09/12 10:58:40;;;;;;;4.68;4.05;;;;;;;23.35;39.01;94392.22;5017053;28;97042;-42
2021/09/12 11:01:07;;;;;;;5.38;4.65;;;;;;;23.32;39.17;94393.06;5016444;28;99798;-40
2021/09/12 11:03:33;;;;;;;5.03;3.80;;;;;;;23.36;39.30;94388.25;5016517;28;100002;-44
2021/09/12 11:05:58;;;;;;;4.65;4.13;;;;;;;23.37;39.35;94387.06;5016901;28;96698;-42
2021/09/12 11:08:37;;;;;;;4.55;3.75;;;;;;;23.38;39.20;94391.38;5016833;28;96940;-42
2021/09/12 11:11:06;;;;;;;4.90;3.97;;;;;;;23.37;39.29;94384.31;5016367;28;100536;-44
2021/09/12 11:13:32;;;;;;;4.80;4.05;;;;;;;23.37;39.07;94384.31;5016449;28;97742;-42
2021/09/12 11:16:14;;;;;;;5.70;4.15;;;;;;;23.42;39.12;94379.50;5016899;28;96635;-42
2021/09/12 11:18:48;;;;;;;4.40;4.00;;;;;;;23.43;39.26;94375.53;5016927;28;96766;-42
2021/09/12 11:21:38;;;;;;;4.60;4.20;;;;;;;23.39;39.49;94365.38;5015977;28;99427;-42
2021/09/12 11:24:16;;;;;;;5.43;4.32;;;;;;;23.41;39.40;94372.44;5015999;28;99149;-41